SWA4791 KSAN-KSFO
Flight info
| Callsign | SWA4791 |
|---|---|
| Flight time | 1h 6m |
| Altitude | 38000 |
| Route | PADRZ2 IKAYE RIZIN SPLNT STOKD SERFR SERFR4 |
| Aircraft | B738/M-SDE2E3FGHIRWXY/L |
Departure
| Time | 2026-04-30 21:24 |
|---|---|
| Airport | San Diego International Airport (KSAN) |
Arrival
| Time | 2026-04-30 22:31 |
|---|---|
| Airport | San Francisco International Airport (KSFO) |
| Time | Latitude | Longitude | Altitude | Speed | Heading |
|---|---|---|---|---|---|
| 2026-04-30 20:45 | 32.73254 | -117.19550 | 24 ft | 0 kts | 317° |
| 2026-04-30 21:09 | 32.73245 | -117.19540 | 24 ft | 2 kts | 317° |
| 2026-04-30 21:09 | 32.73233 | -117.19528 | 24 ft | 2 kts | 342° |
| 2026-04-30 21:10 | 32.73218 | -117.19527 | 24 ft | 2 kts | 17° |
| 2026-04-30 21:10 | 32.73210 | -117.19531 | 24 ft | 1 kts | 37° |
| 2026-04-30 21:10 | 32.73206 | -117.19535 | 24 ft | 0 kts | 33° |
| 2026-04-30 21:17 | 32.73222 | -117.19522 | 24 ft | 4 kts | 36° |
| 2026-04-30 21:17 | 32.73248 | -117.19492 | 24 ft | 5 kts | 42° |
| 2026-04-30 21:17 | 32.73275 | -117.19469 | 24 ft | 4 kts | 32° |
| 2026-04-30 21:18 | 32.73294 | -117.19456 | 24 ft | 2 kts | 27° |
| 2026-04-30 21:18 | 32.73319 | -117.19435 | 24 ft | 6 kts | 44° |
| 2026-04-30 21:18 | 32.73346 | -117.19388 | 24 ft | 6 kts | 71° |
| 2026-04-30 21:18 | 32.73342 | -117.19335 | 24 ft | 6 kts | 107° |
| 2026-04-30 21:19 | 32.73324 | -117.19260 | 24 ft | 12 kts | 106° |
| 2026-04-30 21:19 | 32.73301 | -117.19160 | 24 ft | 13 kts | 106° |
| 2026-04-30 21:19 | 32.73265 | -117.19024 | 23 ft | 20 kts | 104° |
| 2026-04-30 21:19 | 32.73228 | -117.18862 | 22 ft | 19 kts | 107° |
| 2026-04-30 21:20 | 32.73191 | -117.18713 | 22 ft | 18 kts | 107° |
| 2026-04-30 21:20 | 32.73156 | -117.18566 | 21 ft | 17 kts | 105° |
| 2026-04-30 21:20 | 32.73122 | -117.18426 | 21 ft | 17 kts | 107° |
| 2026-04-30 21:20 | 32.73089 | -117.18290 | 21 ft | 17 kts | 105° |
| 2026-04-30 21:21 | 32.73057 | -117.18158 | 21 ft | 16 kts | 106° |
| 2026-04-30 21:21 | 32.73027 | -117.18035 | 21 ft | 15 kts | 106° |
| 2026-04-30 21:21 | 32.72977 | -117.17828 | 24 ft | 10 kts | 105° |
| 2026-04-30 21:22 | 32.72959 | -117.17756 | 25 ft | 7 kts | 105° |
| 2026-04-30 21:22 | 32.72976 | -117.17683 | 27 ft | 5 kts | 41° |
| 2026-04-30 21:23 | 32.72998 | -117.17673 | 27 ft | 1 kts | 11° |
| 2026-04-30 21:23 | 32.73025 | -117.17677 | 27 ft | 9 kts | 335° |
| 2026-04-30 21:23 | 32.73096 | -117.17899 | 24 ft | 37 kts | 285° |
| 2026-04-30 21:24 | 32.73249 | -117.18529 | 23 ft | 117 kts | 286° |
| 2026-04-30 21:24 | 32.73534 | -117.19716 | 37 ft | 179 kts | 284° |
| 2026-04-30 21:24 | 32.73838 | -117.20984 | 714 ft | 145 kts | 284° |
| 2026-04-30 21:24 | 32.74108 | -117.22146 | 447 ft | 148 kts | 282° |
| 2026-04-30 21:25 | 32.74565 | -117.24472 | 1423 ft | 147 kts | 284° |
| 2026-04-30 21:25 | 32.74866 | -117.25784 | 1600 ft | 181 kts | 284° |
| 2026-04-30 21:25 | 32.75229 | -117.27192 | 2259 ft | 184 kts | 295° |
| 2026-04-30 21:26 | 32.77194 | -117.29418 | 3296 ft | 209 kts | 322° |
| 2026-04-30 21:26 | 32.78375 | -117.30471 | 3837 ft | 221 kts | 323° |
| 2026-04-30 21:27 | 32.80957 | -117.32886 | 4999 ft | 249 kts | 322° |
| 2026-04-30 21:27 | 32.82292 | -117.34253 | 5619 ft | 264 kts | 314° |
| 2026-04-30 21:27 | 32.83361 | -117.36117 | 6263 ft | 278 kts | 301° |
| 2026-04-30 21:28 | 32.85338 | -117.40152 | 7798 ft | 289 kts | 307° |
| 2026-04-30 21:28 | 32.86511 | -117.42080 | 8626 ft | 291 kts | 310° |
| 2026-04-30 21:28 | 32.88991 | -117.45873 | 10279 ft | 295 kts | 311° |
| 2026-04-30 21:29 | 32.90274 | -117.47834 | 10821 ft | 307 kts | 311° |
| 2026-04-30 21:29 | 32.94411 | -117.54240 | 12334 ft | 346 kts | 310° |
| 2026-04-30 21:30 | 32.97440 | -117.58955 | 13132 ft | 374 kts | 310° |
| 2026-04-30 21:31 | 33.02325 | -117.66591 | 15015 ft | 393 kts | 310° |
| 2026-04-30 21:31 | 33.05670 | -117.71722 | 16375 ft | 397 kts | 313° |
| 2026-04-30 21:32 | 33.09555 | -117.76399 | 17731 ft | 399 kts | 321° |
| 2026-04-30 21:32 | 33.11647 | -117.78544 | 18356 ft | 401 kts | 323° |
| 2026-04-30 21:32 | 33.13808 | -117.80683 | 19090 ft | 402 kts | 323° |
| 2026-04-30 21:32 | 33.15948 | -117.82792 | 19701 ft | 405 kts | 323° |
| 2026-04-30 21:33 | 33.18114 | -117.84944 | 20285 ft | 408 kts | 323° |
| 2026-04-30 21:33 | 33.22411 | -117.89496 | 21398 ft | 416 kts | 320° |
| 2026-04-30 21:33 | 33.24448 | -117.91898 | 21971 ft | 419 kts | 319° |
| 2026-04-30 21:34 | 33.26504 | -117.94393 | 22505 ft | 422 kts | 318° |
| 2026-04-30 21:34 | 33.30633 | -117.99438 | 23589 ft | 427 kts | 318° |
| 2026-04-30 21:34 | 33.32719 | -118.01974 | 24095 ft | 429 kts | 318° |
| 2026-04-30 21:35 | 33.34795 | -118.04485 | 24639 ft | 430 kts | 319° |
| 2026-04-30 21:35 | 33.36906 | -118.07029 | 25083 ft | 434 kts | 318° |
| 2026-04-30 21:35 | 33.39053 | -118.09611 | 25567 ft | 437 kts | 318° |
| 2026-04-30 21:35 | 33.41187 | -118.12174 | 26056 ft | 439 kts | 318° |
| 2026-04-30 21:36 | 33.43359 | -118.14781 | 26544 ft | 440 kts | 318° |
| 2026-04-30 21:36 | 33.45502 | -118.17354 | 26983 ft | 443 kts | 318° |
| 2026-04-30 21:37 | 33.52046 | -118.25222 | 28551 ft | 442 kts | 318° |
| 2026-04-30 21:37 | 33.54192 | -118.27810 | 29294 ft | 436 kts | 318° |
| 2026-04-30 21:37 | 33.56299 | -118.30354 | 29956 ft | 431 kts | 318° |
| 2026-04-30 21:37 | 33.58384 | -118.32871 | 30535 ft | 428 kts | 318° |
| 2026-04-30 21:38 | 33.60497 | -118.35422 | 31013 ft | 428 kts | 317° |
| 2026-04-30 21:38 | 33.62578 | -118.37933 | 31399 ft | 428 kts | 317° |
| 2026-04-30 21:38 | 33.64687 | -118.40480 | 31772 ft | 429 kts | 317° |
| 2026-04-30 21:38 | 33.66794 | -118.43027 | 32234 ft | 428 kts | 317° |
| 2026-04-30 21:39 | 33.68889 | -118.45562 | 32703 ft | 425 kts | 317° |
| 2026-04-30 21:39 | 33.70938 | -118.48043 | 33148 ft | 423 kts | 317° |
| 2026-04-30 21:39 | 33.73006 | -118.50550 | 33615 ft | 421 kts | 317° |
| 2026-04-30 21:39 | 33.75060 | -118.53041 | 34054 ft | 419 kts | 317° |
| 2026-04-30 21:40 | 33.77071 | -118.55482 | 34442 ft | 417 kts | 317° |
| 2026-04-30 21:40 | 33.79130 | -118.57981 | 34768 ft | 418 kts | 317° |
| 2026-04-30 21:40 | 33.81162 | -118.60451 | 35142 ft | 416 kts | 317° |
| 2026-04-30 21:40 | 33.83187 | -118.62915 | 35511 ft | 415 kts | 316° |
| 2026-04-30 21:41 | 33.85204 | -118.65371 | 35880 ft | 413 kts | 316° |
| 2026-04-30 21:41 | 33.87219 | -118.67826 | 36174 ft | 413 kts | 316° |
| 2026-04-30 21:41 | 33.89247 | -118.70298 | 36428 ft | 413 kts | 316° |
| 2026-04-30 21:41 | 33.91264 | -118.72759 | 36678 ft | 413 kts | 316° |
| 2026-04-30 21:42 | 33.93282 | -118.75220 | 36931 ft | 413 kts | 316° |
| 2026-04-30 21:42 | 33.95294 | -118.77676 | 37172 ft | 414 kts | 316° |
| 2026-04-30 21:42 | 33.97308 | -118.80137 | 37370 ft | 414 kts | 316° |
| 2026-04-30 21:42 | 33.99320 | -118.82597 | 37595 ft | 414 kts | 316° |
| 2026-04-30 21:43 | 34.01334 | -118.85063 | 37735 ft | 416 kts | 316° |
| 2026-04-30 21:43 | 34.03354 | -118.87538 | 37905 ft | 416 kts | 316° |
| 2026-04-30 21:43 | 34.07387 | -118.92486 | 37934 ft | 411 kts | 315° |
| 2026-04-30 21:44 | 34.11329 | -118.97332 | 37942 ft | 409 kts | 315° |
| 2026-04-30 21:44 | 34.14997 | -119.02545 | 37944 ft | 412 kts | 307° |
| 2026-04-30 21:45 | 34.18156 | -119.08264 | 37938 ft | 413 kts | 304° |
| 2026-04-30 21:45 | 34.21173 | -119.14146 | 37948 ft | 413 kts | 303° |
| 2026-04-30 21:46 | 34.24146 | -119.19996 | 37942 ft | 413 kts | 303° |
| 2026-04-30 21:46 | 34.27148 | -119.25881 | 37948 ft | 413 kts | 304° |
| 2026-04-30 21:47 | 34.30137 | -119.31728 | 37947 ft | 412 kts | 304° |
| 2026-04-30 21:47 | 34.33123 | -119.37565 | 37948 ft | 412 kts | 304° |
| 2026-04-30 21:48 | 34.36108 | -119.43404 | 37952 ft | 411 kts | 304° |
| 2026-04-30 21:48 | 34.39112 | -119.49268 | 37950 ft | 410 kts | 304° |
| 2026-04-30 21:49 | 34.42408 | -119.54822 | 37963 ft | 409 kts | 311° |
| 2026-04-30 21:49 | 34.46272 | -119.59826 | 37968 ft | 409 kts | 315° |
| 2026-04-30 21:50 | 34.50279 | -119.64661 | 37981 ft | 408 kts | 316° |
| 2026-04-30 21:50 | 34.54279 | -119.69490 | 37985 ft | 408 kts | 315° |
| 2026-04-30 21:51 | 34.58290 | -119.74385 | 37984 ft | 408 kts | 315° |
| 2026-04-30 21:51 | 34.62256 | -119.79263 | 37994 ft | 409 kts | 315° |
| 2026-04-30 21:52 | 34.66194 | -119.84128 | 37985 ft | 408 kts | 315° |
| 2026-04-30 21:52 | 34.70168 | -119.89050 | 37988 ft | 409 kts | 315° |
| 2026-04-30 21:53 | 34.74146 | -119.93985 | 37996 ft | 409 kts | 314° |
| 2026-04-30 21:53 | 34.78066 | -119.98855 | 38006 ft | 408 kts | 314° |
| 2026-04-30 21:54 | 34.82026 | -120.03783 | 38019 ft | 408 kts | 314° |
| 2026-04-30 21:54 | 34.85989 | -120.08720 | 38010 ft | 408 kts | 314° |
| 2026-04-30 21:55 | 34.89925 | -120.13633 | 37993 ft | 408 kts | 314° |
| 2026-04-30 21:55 | 34.93869 | -120.18562 | 37979 ft | 409 kts | 314° |
| 2026-04-30 21:56 | 34.97811 | -120.23496 | 37969 ft | 409 kts | 314° |
| 2026-04-30 21:56 | 35.01785 | -120.28477 | 37958 ft | 408 kts | 314° |
| 2026-04-30 21:57 | 35.05726 | -120.33424 | 37949 ft | 407 kts | 314° |
| 2026-04-30 21:57 | 35.09640 | -120.38320 | 37949 ft | 407 kts | 315° |
| 2026-04-30 21:58 | 35.13779 | -120.43063 | 37952 ft | 409 kts | 317° |
| 2026-04-30 21:58 | 35.17980 | -120.47686 | 37948 ft | 408 kts | 317° |
| 2026-04-30 21:59 | 35.22187 | -120.52335 | 37955 ft | 408 kts | 317° |
| 2026-04-30 22:00 | 35.28420 | -120.59296 | 37954 ft | 407 kts | 317° |
| 2026-04-30 22:00 | 35.34649 | -120.66304 | 37953 ft | 408 kts | 316° |
| 2026-04-30 22:01 | 35.38815 | -120.71004 | 37968 ft | 408 kts | 316° |
| 2026-04-30 22:01 | 35.42943 | -120.75669 | 37968 ft | 408 kts | 316° |
| 2026-04-30 22:02 | 35.47115 | -120.80390 | 37970 ft | 406 kts | 316° |
| 2026-04-30 22:02 | 35.51401 | -120.84834 | 37967 ft | 408 kts | 321° |
| 2026-04-30 22:03 | 35.55923 | -120.88999 | 37958 ft | 408 kts | 322° |
| 2026-04-30 22:03 | 35.60468 | -120.93127 | 37954 ft | 407 kts | 322° |
| 2026-04-30 22:04 | 35.64979 | -120.97264 | 37951 ft | 408 kts | 321° |
| 2026-04-30 22:04 | 35.69485 | -121.01434 | 37951 ft | 392 kts | 321° |
| 2026-04-30 22:05 | 35.71620 | -121.03415 | 37911 ft | 379 kts | 321° |
| 2026-04-30 22:05 | 35.73711 | -121.05362 | 37477 ft | 378 kts | 321° |
| 2026-04-30 22:05 | 35.75772 | -121.07285 | 36873 ft | 378 kts | 321° |
| 2026-04-30 22:05 | 35.77851 | -121.09229 | 36268 ft | 376 kts | 321° |
| 2026-04-30 22:06 | 35.79940 | -121.11183 | 35677 ft | 375 kts | 321° |
| 2026-04-30 22:06 | 35.84041 | -121.15022 | 34514 ft | 372 kts | 321° |
| 2026-04-30 22:06 | 35.86113 | -121.16964 | 33929 ft | 372 kts | 322° |
| 2026-04-30 22:07 | 35.88158 | -121.18881 | 33386 ft | 374 kts | 322° |
| 2026-04-30 22:07 | 35.90233 | -121.20828 | 32849 ft | 379 kts | 322° |
| 2026-04-30 22:07 | 35.92330 | -121.22797 | 32309 ft | 381 kts | 322° |
| 2026-04-30 22:07 | 35.94438 | -121.24777 | 31774 ft | 383 kts | 322° |
| 2026-04-30 22:08 | 35.96533 | -121.26746 | 31241 ft | 384 kts | 322° |
| 2026-04-30 22:08 | 35.98658 | -121.28743 | 30704 ft | 385 kts | 322° |
| 2026-04-30 22:08 | 36.00797 | -121.30756 | 30166 ft | 387 kts | 322° |
| 2026-04-30 22:08 | 36.02920 | -121.32754 | 29642 ft | 393 kts | 322° |
| 2026-04-30 22:09 | 36.05123 | -121.34828 | 29097 ft | 395 kts | 322° |
| 2026-04-30 22:09 | 36.07293 | -121.36836 | 28557 ft | 393 kts | 324° |
| 2026-04-30 22:09 | 36.09562 | -121.38748 | 28019 ft | 393 kts | 326° |
| 2026-04-30 22:09 | 36.11869 | -121.40562 | 27484 ft | 396 kts | 327° |
| 2026-04-30 22:10 | 36.14201 | -121.42348 | 26959 ft | 400 kts | 328° |
| 2026-04-30 22:10 | 36.16548 | -121.44138 | 26429 ft | 402 kts | 328° |
| 2026-04-30 22:10 | 36.18940 | -121.45966 | 25892 ft | 404 kts | 328° |
| 2026-04-30 22:10 | 36.21334 | -121.47807 | 25355 ft | 404 kts | 328° |
| 2026-04-30 22:11 | 36.26016 | -121.51436 | 24289 ft | 396 kts | 328° |
| 2026-04-30 22:11 | 36.28330 | -121.53239 | 23753 ft | 392 kts | 328° |
| 2026-04-30 22:11 | 36.30637 | -121.55042 | 23215 ft | 388 kts | 328° |
| 2026-04-30 22:12 | 36.32879 | -121.56797 | 22695 ft | 384 kts | 328° |
| 2026-04-30 22:12 | 36.35136 | -121.58569 | 22156 ft | 380 kts | 328° |
| 2026-04-30 22:12 | 36.37360 | -121.60316 | 21627 ft | 376 kts | 328° |
| 2026-04-30 22:12 | 36.39552 | -121.62038 | 20964 ft | 376 kts | 328° |
| 2026-04-30 22:13 | 36.41732 | -121.63754 | 20308 ft | 374 kts | 328° |
| 2026-04-30 22:13 | 36.43928 | -121.65483 | 19892 ft | 368 kts | 328° |
| 2026-04-30 22:13 | 36.46043 | -121.67148 | 19511 ft | 361 kts | 328° |
| 2026-04-30 22:13 | 36.48163 | -121.68818 | 19169 ft | 353 kts | 328° |
| 2026-04-30 22:14 | 36.50185 | -121.70413 | 18857 ft | 348 kts | 328° |
| 2026-04-30 22:14 | 36.52236 | -121.72033 | 18541 ft | 348 kts | 328° |
| 2026-04-30 22:14 | 36.54267 | -121.73639 | 18227 ft | 349 kts | 328° |
| 2026-04-30 22:14 | 36.56319 | -121.75262 | 17907 ft | 346 kts | 328° |
| 2026-04-30 22:15 | 36.58338 | -121.76862 | 17591 ft | 344 kts | 328° |
| 2026-04-30 22:15 | 36.60358 | -121.78462 | 17277 ft | 343 kts | 328° |
| 2026-04-30 22:15 | 36.62364 | -121.80051 | 16963 ft | 343 kts | 328° |
| 2026-04-30 22:15 | 36.64353 | -121.81627 | 16649 ft | 341 kts | 328° |
| 2026-04-30 22:16 | 36.66359 | -121.83218 | 16333 ft | 340 kts | 328° |
| 2026-04-30 22:16 | 36.68344 | -121.84793 | 16020 ft | 340 kts | 328° |
| 2026-04-30 22:17 | 36.74404 | -121.89253 | 15058 ft | 336 kts | 338° |
| 2026-04-30 22:17 | 36.76622 | -121.90217 | 14684 ft | 335 kts | 344° |
| 2026-04-30 22:17 | 36.81121 | -121.91507 | 13800 ft | 329 kts | 348° |
| 2026-04-30 22:18 | 36.83361 | -121.92070 | 13386 ft | 331 kts | 348° |
| 2026-04-30 22:18 | 36.87827 | -121.93242 | 12429 ft | 326 kts | 348° |
| 2026-04-30 22:19 | 36.92236 | -121.94462 | 11419 ft | 323 kts | 348° |
| 2026-04-30 22:19 | 36.94446 | -121.95081 | 10906 ft | 322 kts | 348° |
| 2026-04-30 22:19 | 36.98727 | -121.96551 | 10073 ft | 320 kts | 343° |
| 2026-04-30 22:20 | 37.00835 | -121.97413 | 9996 ft | 317 kts | 342° |
| 2026-04-30 22:20 | 37.05058 | -121.99135 | 9351 ft | 317 kts | 343° |
| 2026-04-30 22:20 | 37.07129 | -121.99957 | 9112 ft | 307 kts | 343° |
| 2026-04-30 22:21 | 37.09118 | -122.00738 | 8946 ft | 296 kts | 343° |
| 2026-04-30 22:21 | 37.11039 | -122.01490 | 8792 ft | 285 kts | 343° |
| 2026-04-30 22:21 | 37.12906 | -122.02219 | 8644 ft | 274 kts | 343° |
| 2026-04-30 22:21 | 37.14691 | -122.02916 | 8500 ft | 268 kts | 343° |
| 2026-04-30 22:22 | 37.16479 | -122.03615 | 8355 ft | 269 kts | 343° |
| 2026-04-30 22:22 | 37.18277 | -122.04318 | 8233 ft | 270 kts | 343° |
| 2026-04-30 22:22 | 37.20050 | -122.05012 | 8105 ft | 268 kts | 343° |
| 2026-04-30 22:22 | 37.21827 | -122.05708 | 7999 ft | 267 kts | 343° |
| 2026-04-30 22:23 | 37.23600 | -122.06404 | 7992 ft | 266 kts | 343° |
| 2026-04-30 22:23 | 37.25353 | -122.07092 | 7773 ft | 263 kts | 344° |
| 2026-04-30 22:23 | 37.27101 | -122.07778 | 7388 ft | 263 kts | 343° |
| 2026-04-30 22:23 | 37.28841 | -122.08462 | 7020 ft | 263 kts | 343° |
| 2026-04-30 22:24 | 37.30566 | -122.09141 | 6659 ft | 263 kts | 343° |
| 2026-04-30 22:24 | 37.32307 | -122.09827 | 6301 ft | 262 kts | 343° |
| 2026-04-30 22:24 | 37.34022 | -122.10503 | 6018 ft | 258 kts | 343° |
| 2026-04-30 22:24 | 37.35709 | -122.11169 | 6000 ft | 255 kts | 343° |
| 2026-04-30 22:25 | 37.37378 | -122.11827 | 5991 ft | 249 kts | 344° |
| 2026-04-30 22:25 | 37.39019 | -122.12428 | 5996 ft | 250 kts | 346° |
| 2026-04-30 22:25 | 37.40712 | -122.13003 | 5965 ft | 248 kts | 346° |
| 2026-04-30 22:25 | 37.42369 | -122.13556 | 5688 ft | 246 kts | 346° |
| 2026-04-30 22:26 | 37.45638 | -122.14662 | 5143 ft | 240 kts | 346° |
| 2026-04-30 22:26 | 37.47205 | -122.15183 | 4972 ft | 233 kts | 346° |
| 2026-04-30 22:26 | 37.48748 | -122.15691 | 4702 ft | 231 kts | 346° |
| 2026-04-30 22:27 | 37.50303 | -122.16200 | 4365 ft | 232 kts | 346° |
| 2026-04-30 22:27 | 37.51848 | -122.16710 | 4031 ft | 233 kts | 345° |
| 2026-04-30 22:27 | 37.54539 | -122.18819 | 3320 ft | 235 kts | 302° |
| 2026-04-30 22:28 | 37.55705 | -122.22639 | 2604 ft | 234 kts | 298° |
| 2026-04-30 22:28 | 37.56536 | -122.24378 | 2235 ft | 227 kts | 302° |
| 2026-04-30 22:29 | 37.58468 | -122.28921 | 1845 ft | 176 kts | 300° |
| 2026-04-30 22:29 | 37.59037 | -122.30234 | 1444 ft | 171 kts | 298° |
| 2026-04-30 22:30 | 37.61241 | -122.35505 | 211 ft | 165 kts | 297° |
| 2026-04-30 22:31 | 37.62345 | -122.38081 | 28 ft | 41 kts | 298° |
| 2026-04-30 22:32 | 37.62479 | -122.38415 | 25 ft | 5 kts | 289° |
| 2026-04-30 22:32 | 37.62495 | -122.38514 | 25 ft | 5 kts | 275° |
| 2026-04-30 22:33 | 37.62500 | -122.38690 | 25 ft | 7 kts | 269° |
| 2026-04-30 22:33 | 37.62487 | -122.38821 | 25 ft | 10 kts | 245° |
| 2026-04-30 22:34 | 37.62338 | -122.38952 | 28 ft | 7 kts | 207° |
| 2026-04-30 22:35 | 37.62245 | -122.38872 | 30 ft | 11 kts | 122° |
| 2026-04-30 22:36 | 37.62087 | -122.38490 | 31 ft | 16 kts | 118° |
| 2026-04-30 22:36 | 37.62034 | -122.38364 | 31 ft | 15 kts | 118° |
| 2026-04-30 22:37 | 37.61910 | -122.38068 | 31 ft | 10 kts | 121° |
| 2026-04-30 22:37 | 37.61862 | -122.37998 | 31 ft | 10 kts | 140° |
| 2026-04-30 22:37 | 37.61735 | -122.37947 | 30 ft | 8 kts | 181° |
| 2026-04-30 22:38 | 37.61645 | -122.37974 | 31 ft | 4 kts | 205° |
| 2026-04-30 22:38 | 37.61578 | -122.38031 | 31 ft | 5 kts | 244° |
| 2026-04-30 22:39 | 37.61586 | -122.38065 | 31 ft | 3 kts | 333° |
| 2026-04-30 22:39 | 37.61630 | -122.38071 | 31 ft | 4 kts | 344° |
| 2026-04-30 22:40 | 37.61653 | -122.38080 | 31 ft | 0 kts | 342° |